Time;durP1;ratioP1;P1;durP2;ratioP2;P2;SDS_P1;SDS_P2;PMS_P1;PMS_P2;Temp;Humidity;BMP_temperature;BMP_pressure;BME280_temperature;BME280_humidity;BME280_pressure;Samples;Min_cycle;Max_cycle;Signal;HPM_P1;HPM_P2
2022/07/02 00:02:11;;;;;;;3.63;1.25;;;21.80;65.10;;;;;;5016719;28;20101;-72
2022/07/02 00:04:43;;;;;;;4.82;0.90;;;21.70;65.20;;;;;;5016682;28;20029;-72
2022/07/02 00:07:09;;;;;;;2.33;0.87;;;21.70;65.10;;;;;;5016310;28;20038;-73
2022/07/02 00:09:36;;;;;;;3.03;0.90;;;21.70;65.10;;;;;;5016570;28;20265;-72
2022/07/02 00:12:01;;;;;;;3.65;0.75;;;21.70;65.10;;;;;;5016765;28;20036;-72
2022/07/02 00:14:27;;;;;;;2.83;0.82;;;21.70;65.20;;;;;;5016535;28;20470;-72
2022/07/02 00:16:54;;;;;;;1.65;0.50;;;21.70;65.00;;;;;;5016527;28;20065;-73
2022/07/02 00:19:21;;;;;;;2.53;0.60;;;21.70;64.80;;;;;;5016541;28;20045;-71
2022/07/02 00:21:47;;;;;;;3.92;0.80;;;21.70;65.00;;;;;;5016265;28;20030;-72
2022/07/02 00:24:13;;;;;;;3.40;0.68;;;21.70;64.90;;;;;;5016242;28;20486;-74
2022/07/02 00:26:43;;;;;;;4.35;0.93;;;21.60;65.10;;;;;;5016271;28;20026;-72
2022/07/02 00:29:33;;;;;;;2.42;0.70;;;21.60;64.90;;;;;;5014715;28;20026;-72
2022/07/02 00:31:59;;;;;;;2.22;0.68;;;21.60;64.90;;;;;;5016002;28;20026;-72
2022/07/02 00:34:25;;;;;;;3.65;0.82;;;21.60;64.70;;;;;;5014482;28;20041;-72
2022/07/02 00:36:51;;;;;;;1.98;0.77;;;21.60;64.80;;;;;;5016190;28;20487;-72
2022/07/02 00:39:17;;;;;;;3.95;0.70;;;21.60;65.00;;;;;;5015339;28;20095;-71
2022/07/02 00:41:44;;;;;;;3.55;0.73;;;21.60;65.30;;;;;;5015988;28;20138;-71
2022/07/02 00:44:11;;;;;;;2.75;0.73;;;21.50;65.50;;;;;;5015401;28;20034;-72
2022/07/02 00:46:38;;;;;;;2.42;0.60;;;21.50;65.50;;;;;;5015603;28;20133;-72
2022/07/02 00:49:04;;;;;;;2.85;0.80;;;21.50;65.50;;;;;;5015990;28;20085;-71
2022/07/02 00:51:29;;;;;;;2.67;0.85;;;21.50;65.60;;;;;;5016092;28;20029;-72
2022/07/02 00:53:55;;;;;;;3.53;0.77;;;21.50;65.50;;;;;;5015768;28;20495;-69
2022/07/02 00:56:21;;;;;;;2.75;0.47;;;21.50;65.40;;;;;;5015756;28;20109;-72
2022/07/02 00:58:47;;;;;;;2.22;0.57;;;21.40;65.50;;;;;;5015570;28;20537;-72
2022/07/02 01:01:13;;;;;;;3.10;0.70;;;21.40;65.50;;;;;;5015420;28;20022;-72
2022/07/02 01:03:42;;;;;;;3.60;1.00;;;21.50;65.40;;;;;;5015867;28;20153;-73
2022/07/02 01:06:07;;;;;;;3.92;0.65;;;21.40;66.20;;;;;;5015464;28;20018;-72
2022/07/02 01:11:18;;;;;;;3.15;0.70;;;21.50;65.30;;;;;;5015534;28;20459;-71
2022/07/02 01:13:44;;;;;;;3.47;0.95;;;21.40;65.40;;;;;;5015152;28;20033;-72
2022/07/02 01:16:10;;;;;;;2.28;0.80;;;21.40;65.30;;;;;;5015169;28;20030;-69
2022/07/02 01:18:38;;;;;;;3.60;1.10;;;21.50;65.60;;;;;;5015490;28;20098;-70
2022/07/02 01:21:04;;;;;;;3.80;0.50;;;21.40;65.70;;;;;;5015105;28;20029;-70
2022/07/02 01:23:30;;;;;;;5.30;0.90;;;21.40;65.50;;;;;;5015365;28;20019;-70
2022/07/02 01:25:56;;;;;;;2.78;1.10;;;21.40;65.60;;;;;;5015125;28;20076;-73
2022/07/02 01:28:21;;;;;;;3.75;0.68;;;21.40;65.40;;;;;;5014829;28;20472;-73
2022/07/02 01:30:48;;;;;;;1.75;0.45;;;21.40;65.80;;;;;;5015034;28;20026;-72
2022/07/02 01:33:13;;;;;;;3.85;0.77;;;21.30;65.80;;;;;;5015096;28;20021;-73
2022/07/02 01:35:39;;;;;;;3.85;0.77;;;21.30;65.90;;;;;;5014780;28;20030;-73
2022/07/02 01:38:05;;;;;;;2.08;0.73;;;21.30;66.00;;;;;;5014951;28;20077;-73
2022/07/02 01:40:31;;;;;;;2.63;0.77;;;21.30;66.20;;;;;;5014795;28;20030;-73
2022/07/02 01:42:56;;;;;;;2.75;0.98;;;21.30;66.40;;;;;;5014277;28;20101;-71
2022/07/02 01:45:22;;;;;;;4.10;0.70;;;21.30;66.10;;;;;;5014598;28;20047;-72
2022/07/02 01:47:48;;;;;;;4.65;0.90;;;21.40;66.30;;;;;;5014746;28;20558;-72
2022/07/02 01:50:13;;;;;;;4.13;0.73;;;21.40;66.00;;;;;;5013344;28;20022;-72
2022/07/02 01:52:39;;;;;;;4.75;1.00;;;21.40;66.20;;;;;;5014631;28;20064;-72
2022/07/02 01:55:05;;;;;;;2.45;0.93;;;21.40;66.60;;;;;;5014649;28;20466;-72
2022/07/02 01:57:35;;;;;;;2.20;1.13;;;21.30;66.60;;;;;;5013869;28;20028;-72
2022/07/02 02:00:02;;;;;;;2.42;0.85;;;21.30;66.80;;;;;;5014472;28;20108;-72
2022/07/02 02:02:28;;;;;;;3.65;0.82;;;21.20;67.00;;;;;;5014362;28;20114;-72
2022/07/02 02:04:53;;;;;;;5.03;0.73;;;21.30;66.90;;;;;;5014751;28;20442;-72
2022/07/02 02:07:19;;;;;;;4.28;0.90;;;21.30;67.20;;;;;;5014277;28;20041;-72
2022/07/02 02:09:45;;;;;;;4.57;0.98;;;21.20;68.10;;;;;;5014435;28;20021;-70
2022/07/02 02:12:10;;;;;;;4.18;0.80;;;21.20;67.40;;;;;;5013972;28;20033;-68
2022/07/02 02:14:36;;;;;;;3.67;0.98;;;21.20;67.40;;;;;;5014289;28;20105;-69
2022/07/02 02:17:01;;;;;;;3.90;1.10;;;21.20;67.50;;;;;;5014109;28;20049;-71
2022/07/02 02:19:27;;;;;;;2.78;1.00;;;21.20;67.80;;;;;;5014022;28;20073;-69
2022/07/02 02:21:53;;;;;;;3.88;0.60;;;21.20;67.70;;;;;;5014107;28;20030;-69
2022/07/02 02:24:18;;;;;;;3.30;1.15;;;21.10;67.80;;;;;;5013813;28;20450;-69
2022/07/02 02:26:44;;;;;;;2.70;0.70;;;21.10;68.10;;;;;;5013844;28;20053;-69
2022/07/02 02:29:10;;;;;;;2.10;0.80;;;21.10;67.80;;;;;;5013944;28;20030;-69
2022/07/02 02:31:35;;;;;;;2.63;0.80;;;21.20;68.00;;;;;;5013945;28;20033;-69
2022/07/02 02:34:01;;;;;;;3.40;0.70;;;21.20;68.10;;;;;;4996236;28;20089;-70
2022/07/02 02:36:26;;;;;;;2.75;0.77;;;21.10;68.30;;;;;;5013728;28;20470;-69
2022/07/02 02:38:52;;;;;;;2.72;0.68;;;21.20;68.40;;;;;;5013793;28;20380;-69
2022/07/02 02:41:18;;;;;;;3.30;0.90;;;21.20;68.40;;;;;;5013659;28;20084;-71
2022/07/02 02:43:43;;;;;;;3.63;0.95;;;21.20;68.60;;;;;;5013574;28;20120;-69
2022/07/02 02:46:09;;;;;;;1.60;0.82;;;21.10;68.80;;;;;;5013734;28;20530;-70
2022/07/02 02:48:35;;;;;;;5.75;0.90;;;21.10;68.80;;;;;;5013781;28;20034;-70
2022/07/02 02:51:03;;;;;;;3.85;0.90;;;21.10;68.70;;;;;;5013831;28;20053;-69
2022/07/02 02:53:28;;;;;;;5.50;1.05;;;21.10;68.40;;;;;;5012238;28;20048;-69
2022/07/02 02:55:54;;;;;;;4.72;0.93;;;21.10;68.20;;;;;;5013660;28;20475;-71
2022/07/02 02:58:19;;;;;;;4.32;0.60;;;21.10;68.10;;;;;;5013369;28;20438;-71
2022/07/02 03:00:45;;;;;;;3.60;0.88;;;21.10;68.40;;;;;;5013636;28;20575;-71
2022/07/02 03:03:11;;;;;;;4.45;1.00;;;21.10;68.50;;;;;;5013403;28;20407;-72
2022/07/02 03:05:36;;;;;;;3.63;1.00;;;21.00;68.80;;;;;;5013412;28;20028;-72
2022/07/02 03:08:02;;;;;;;4.50;0.73;;;21.00;69.00;;;;;;5013070;28;20472;-73
2022/07/02 03:10:27;;;;;;;3.70;1.10;;;21.00;69.20;;;;;;5013427;28;20065;-69
2022/07/02 03:12:53;;;;;;;3.50;0.80;;;21.00;69.20;;;;;;5013484;28;20049;-69
2022/07/02 03:15:19;;;;;;;3.13;1.00;;;21.00;69.20;;;;;;5013323;28;20511;-70
2022/07/02 03:17:44;;;;;;;1.88;0.55;;;21.00;69.10;;;;;;5013346;28;20379;-69
2022/07/02 03:20:10;;;;;;;3.20;1.13;;;21.00;69.30;;;;;;5013568;28;20021;-69
2022/07/02 03:22:36;;;;;;;3.58;1.05;;;21.00;69.20;;;;;;5013096;28;20053;-72
2022/07/02 03:25:02;;;;;;;1.90;0.63;;;21.00;69.20;;;;;;5013523;28;20467;-72
2022/07/02 03:27:28;;;;;;;4.38;1.10;;;21.00;69.00;;;;;;5013465;28;20042;-72
2022/07/02 03:29:53;;;;;;;6.90;1.10;;;20.90;69.10;;;;;;5013463;28;20018;-72
2022/07/02 03:32:20;;;;;;;5.68;1.27;;;20.90;69.10;;;;;;5013176;28;20022;-72
2022/07/02 03:34:46;;;;;;;3.25;1.20;;;20.90;69.10;;;;;;5013523;28;20117;-72
2022/07/02 03:37:11;;;;;;;4.15;0.95;;;20.90;69.40;;;;;;5012998;28;20066;-71
2022/07/02 03:39:37;;;;;;;2.17;1.05;;;20.90;69.60;;;;;;5013095;28;20022;-69
2022/07/02 03:42:03;;;;;;;7.55;1.20;;;20.90;69.50;;;;;;5013361;28;20065;-72
2022/07/02 03:44:28;;;;;;;5.35;1.20;;;20.90;69.40;;;;;;5012968;28;20038;-72
2022/07/02 03:46:54;;;;;;;2.75;1.30;;;20.80;69.90;;;;;;5013040;28;20379;-72
2022/07/02 03:49:20;;;;;;;3.17;1.25;;;20.90;70.00;;;;;;5013002;28;20140;-72
2022/07/02 03:51:46;;;;;;;3.97;1.02;;;20.90;70.00;;;;;;5013031;28;20057;-72
2022/07/02 03:54:12;;;;;;;3.00;0.93;;;20.90;70.30;;;;;;5013084;28;20117;-73
2022/07/02 03:56:37;;;;;;;3.58;0.98;;;20.80;70.10;;;;;;5012889;28;20026;-72
2022/07/02 03:59:03;;;;;;;1.95;1.10;;;20.80;69.90;;;;;;5013079;28;20026;-73
2022/07/02 04:01:28;;;;;;;3.88;1.13;;;20.80;70.00;;;;;;5012841;28;20514;-73
2022/07/02 04:03:54;;;;;;;5.75;1.10;;;20.90;70.10;;;;;;5013144;28;20352;-72
2022/07/02 04:06:19;;;;;;;4.72;1.35;;;20.90;70.10;;;;;;5012619;28;20032;-72
2022/07/02 04:08:45;;;;;;;5.72;1.20;;;20.80;70.20;;;;;;5012695;28;20072;-73
2022/07/02 04:11:11;;;;;;;2.20;1.02;;;20.90;70.00;;;;;;5012892;28;20047;-72
2022/07/02 04:13:36;;;;;;;3.35;1.27;;;20.90;70.10;;;;;;5012605;28;20436;-72
2022/07/02 04:16:02;;;;;;;3.00;0.95;;;20.80;70.20;;;;;;5012946;28;20545;-72
2022/07/02 04:18:27;;;;;;;2.65;0.90;;;20.90;70.30;;;;;;5012092;28;20030;-72
2022/07/02 04:20:53;;;;;;;3.90;1.00;;;20.80;70.30;;;;;;5012325;28;20026;-72
2022/07/02 04:23:18;;;;;;;4.70;1.10;;;20.80;70.70;;;;;;5015898;28;20038;-71
2022/07/02 04:25:44;;;;;;;3.92;0.82;;;20.80;70.40;;;;;;5015892;28;20018;-72
2022/07/02 04:28:11;;;;;;;4.05;0.90;;;20.70;71.00;;;;;;5002328;28;20523;-72
2022/07/02 04:30:37;;;;;;;3.83;0.98;;;20.80;70.80;;;;;;4979355;28;20026;-72
2022/07/02 04:33:02;;;;;;;1.67;0.80;;;20.80;71.60;;;;;;4995450;28;20018;-72
2022/07/02 04:35:28;;;;;;;3.70;0.90;;;20.80;71.10;;;;;;4995942;28;20109;-72
2022/07/02 04:37:54;;;;;;;3.33;1.02;;;20.80;71.70;;;;;;4996677;28;20070;-72
2022/07/02 04:40:19;;;;;;;4.50;1.20;;;20.80;72.00;;;;;;4996378;28;20026;-72
2022/07/02 04:42:45;;;;;;;2.28;1.00;;;20.70;72.10;;;;;;4996207;28;20034;-72
2022/07/02 04:45:11;;;;;;;2.15;0.60;;;20.70;72.10;;;;;;5000688;28;20040;-72
2022/07/02 04:47:36;;;;;;;4.03;1.35;;;20.70;72.00;;;;;;5015804;28;20030;-72
2022/07/02 04:50:02;;;;;;;2.45;0.82;;;20.80;72.10;;;;;;5015602;28;20057;-72
2022/07/02 04:52:28;;;;;;;4.28;0.88;;;20.70;72.30;;;;;;5015836;28;20034;-71
2022/07/02 04:54:53;;;;;;;2.92;1.23;;;20.80;72.50;;;;;;4998110;28;20054;-72
2022/07/02 04:57:19;;;;;;;3.78;1.13;;;20.80;73.10;;;;;;5015957;28;20076;-71
2022/07/02 04:59:44;;;;;;;4.18;1.30;;;20.70;72.90;;;;;;5015571;28;20048;-72
2022/07/02 05:02:11;;;;;;;5.18;2.45;;;20.70;72.80;;;;;;5008393;28;20104;-72
2022/07/02 05:04:37;;;;;;;4.93;1.83;;;20.70;72.80;;;;;;5015228;28;20053;-73
2022/07/02 05:07:03;;;;;;;4.28;1.40;;;20.70;73.10;;;;;;5013317;28;20120;-72
2022/07/02 05:09:28;;;;;;;4.65;2.00;;;20.60;73.00;;;;;;4995499;28;20044;-72
2022/07/02 05:11:54;;;;;;;4.10;1.85;;;20.60;73.50;;;;;;5007601;28;20025;-71
2022/07/02 05:14:20;;;;;;;3.15;1.23;;;20.60;73.80;;;;;;5006399;28;20383;-73
2022/07/02 05:16:46;;;;;;;3.25;1.15;;;20.50;73.80;;;;;;5008113;28;20034;-71
2022/07/02 05:19:11;;;;;;;3.95;1.20;;;20.60;73.50;;;;;;5004488;28;20100;-72
2022/07/02 05:21:37;;;;;;;5.90;1.17;;;20.70;73.50;;;;;;5003287;28;20472;-72
2022/07/02 05:24:03;;;;;;;2.42;1.20;;;20.70;73.80;;;;;;5010174;28;20511;-72
2022/07/02 05:26:29;;;;;;;4.05;1.10;;;20.70;73.70;;;;;;4997272;28;20542;-73
2022/07/02 05:28:55;;;;;;;3.45;1.17;;;20.70;73.40;;;;;;5014363;28;20025;-73
2022/07/02 05:31:20;;;;;;;5.57;1.40;;;20.70;73.40;;;;;;5014343;28;20018;-71
2022/07/02 05:33:46;;;;;;;9.02;1.20;;;20.70;73.80;;;;;;5003307;28;20571;-72
2022/07/02 05:36:12;;;;;;;3.70;1.30;;;20.70;73.90;;;;;;5004749;28;20026;-72
2022/07/02 05:38:38;;;;;;;3.17;0.93;;;20.70;73.90;;;;;;5013973;28;20506;-72
2022/07/02 05:41:03;;;;;;;4.55;1.10;;;20.70;74.70;;;;;;5014098;28;20018;-73
2022/07/02 05:43:29;;;;;;;5.07;1.33;;;20.70;75.70;;;;;;5013811;28;20056;-73
2022/07/02 05:45:55;;;;;;;4.55;1.08;;;20.70;76.00;;;;;;5013136;28;20049;-72
2022/07/02 05:48:20;;;;;;;4.53;1.27;;;20.70;76.70;;;;;;5013758;28;20034;-73
2022/07/02 05:50:46;;;;;;;4.65;1.23;;;20.70;76.30;;;;;;5006667;28;20029;-72
2022/07/02 05:53:13;;;;;;;7.03;1.17;;;20.80;76.30;;;;;;5008091;28;20057;-73
2022/07/02 05:55:39;;;;;;;5.53;1.30;;;20.80;76.50;;;;;;5012647;28;20482;-73
2022/07/02 05:58:04;;;;;;;3.30;1.27;;;20.80;76.30;;;;;;5011658;28;20030;-73
2022/07/02 06:00:30;;;;;;;3.88;1.08;;;20.90;76.00;;;;;;5011911;28;20028;-71
2022/07/02 06:02:55;;;;;;;2.83;0.95;;;21.00;76.10;;;;;;4983085;28;20042;-72
2022/07/02 06:08:05;;;;;;;5.43;0.70;;;21.10;75.90;;;;;;5013066;28;20414;-71
2022/07/02 06:10:31;;;;;;;3.10;0.80;;;21.20;74.80;;;;;;5012521;28;20026;-73
2022/07/02 06:12:56;;;;;;;2.75;0.57;;;21.30;75.00;;;;;;5012961;28;20041;-71
2022/07/02 06:15:22;;;;;;;3.75;0.90;;;21.40;74.70;;;;;;5007644;28;20526;-72
2022/07/02 06:17:47;;;;;;;2.47;0.77;;;21.40;73.80;;;;;;5007984;28;20030;-70
2022/07/02 06:20:14;;;;;;;5.70;0.90;;;21.60;73.20;;;;;;5010839;28;20104;-71
2022/07/02 06:22:40;;;;;;;2.80;0.80;;;21.70;73.10;;;;;;5008093;28;20148;-71
2022/07/02 06:25:07;;;;;;;3.42;0.60;;;21.70;73.20;;;;;;4998219;28;20500;-72
2022/07/02 06:27:34;;;;;;;2.85;0.65;;;21.80;73.20;;;;;;5007263;28;20029;-69
2022/07/02 06:30:03;;;;;;;3.53;0.90;;;21.80;73.20;;;;;;5009204;28;20022;-70
2022/07/02 06:32:29;;;;;;;3.15;0.55;;;21.90;72.60;;;;;;4996578;28;20406;-70
2022/07/02 06:34:55;;;;;;;3.08;0.80;;;22.00;72.20;;;;;;5012030;28;20535;-71
2022/07/02 06:37:21;;;;;;;2.10;0.80;;;22.10;71.50;;;;;;5011765;28;20112;-72
2022/07/02 06:39:47;;;;;;;2.55;0.40;;;22.10;70.90;;;;;;5011703;28;20058;-70
2022/07/02 06:42:18;;;;;;;2.67;0.68;;;22.20;70.40;;;;;;5012378;28;20030;-71
2022/07/02 06:44:46;;;;;;;2.45;0.63;;;22.40;69.60;;;;;;5012279;28;20028;-73
2022/07/02 06:47:12;;;;;;;2.35;0.40;;;22.40;69.70;;;;;;5008255;28;20332;-70
2022/07/02 06:49:38;;;;;;;3.47;0.60;;;22.50;69.90;;;;;;5009683;28;20398;-69
2022/07/02 06:52:04;;;;;;;1.20;0.38;;;22.50;70.40;;;;;;5010190;28;20111;-72
2022/07/02 06:54:29;;;;;;;3.83;0.30;;;22.60;70.60;;;;;;5012738;28;20026;-70
2022/07/02 06:56:55;;;;;;;3.00;0.45;;;22.70;70.10;;;;;;5012583;28;20464;-70
2022/07/02 06:59:21;;;;;;;3.20;0.40;;;22.80;68.80;;;;;;5012602;28;20530;-73
2022/07/02 07:01:47;;;;;;;3.33;0.57;;;22.80;69.40;;;;;;5010660;28;20100;-70
2022/07/02 07:04:12;;;;;;;2.88;0.40;;;22.90;68.60;;;;;;5012252;28;20076;-72
2022/07/02 07:06:46;;;;;;;1.90;0.43;;;22.90;69.00;;;;;;5013512;28;20470;-74
2022/07/02 07:09:11;;;;;;;2.40;0.30;;;23.00;68.10;;;;;;5008885;28;20038;-72
2022/07/02 07:11:37;;;;;;;3.67;0.40;;;23.10;66.50;;;;;;5003982;28;20092;-73
2022/07/02 07:14:02;;;;;;;2.03;0.40;;;23.10;68.30;;;;;;5012146;28;20056;-73
2022/07/02 07:16:28;;;;;;;3.45;0.38;;;23.10;68.70;;;;;;5012021;28;20176;-73
2022/07/02 07:19:04;;;;;;;2.35;0.40;;;23.20;68.10;;;;;;5012117;28;20104;-72
2022/07/02 07:21:30;;;;;;;1.70;0.50;;;23.30;66.30;;;;;;5010782;28;20057;-71
2022/07/02 07:23:56;;;;;;;3.40;0.60;;;23.30;68.80;;;;;;5011310;28;20018;-71
2022/07/02 07:26:22;;;;;;;1.48;0.40;;;23.40;68.70;;;;;;5003806;28;20013;-72
2022/07/02 07:28:47;;;;;;;4.65;0.30;;;23.40;67.30;;;;;;5010161;28;20030;-69
2022/07/02 07:31:13;;;;;;;18.17;2.75;;;23.40;69.00;;;;;;5011398;28;20018;-68
2022/07/02 07:33:40;;;;;;;12.48;1.02;;;23.40;69.90;;;;;;5008583;28;20605;-68
2022/07/02 07:36:05;;;;;;;2.42;0.60;;;23.30;70.30;;;;;;5010683;28;20014;-68
2022/07/02 07:38:31;;;;;;;4.22;0.75;;;23.10;70.60;;;;;;5008183;28;20040;-69
2022/07/02 07:40:56;;;;;;;2.45;0.50;;;23.10;70.30;;;;;;5011505;28;20108;-68
2022/07/02 07:43:22;;;;;;;4.10;0.50;;;23.00;70.40;;;;;;5010819;28;20480;-68
2022/07/02 07:45:48;;;;;;;5.93;0.70;;;23.00;70.00;;;;;;5007566;28;20096;-68
2022/07/02 07:48:13;;;;;;;4.93;0.52;;;23.00;69.30;;;;;;5011303;28;20229;-68
2022/07/02 07:50:39;;;;;;;4.80;0.70;;;23.10;69.10;;;;;;5010724;28;20033;-69
2022/07/02 07:53:05;;;;;;;2.42;0.45;;;23.10;68.40;;;;;;5012296;28;20029;-68
2022/07/02 07:55:30;;;;;;;3.70;0.30;;;23.10;67.30;;;;;;5012084;28;20053;-68
2022/07/02 07:57:57;;;;;;;2.60;0.30;;;23.10;66.50;;;;;;5019169;28;20072;-68
2022/07/02 08:00:22;;;;;;;4.47;0.63;;;23.10;66.20;;;;;;5014374;28;20056;-69
2022/07/02 08:02:48;;;;;;;5.18;0.77;;;23.10;65.80;;;;;;5013988;28;20092;-68
2022/07/02 08:05:13;;;;;;;2.88;0.35;;;23.20;65.60;;;;;;5010520;28;20026;-68
2022/07/02 08:07:40;;;;;;;3.45;0.40;;;23.10;65.50;;;;;;5014737;28;20438;-68
2022/07/02 08:10:07;;;;;;;2.03;0.32;;;23.20;65.60;;;;;;5015053;28;20417;-67
2022/07/02 08:12:33;;;;;;;2.33;0.50;;;23.30;65.70;;;;;;5014070;28;20034;-69
2022/07/02 08:15:01;;;;;;;5.10;0.40;;;23.30;65.60;;;;;;5014997;28;20437;-69
2022/07/02 08:17:29;;;;;;;4.10;0.63;;;23.40;65.60;;;;;;5016299;28;20017;-69
2022/07/02 08:19:55;;;;;;;4.68;0.45;;;23.40;65.50;;;;;;5015198;28;20014;-69
2022/07/02 08:22:21;;;;;;;3.55;0.30;;;23.50;65.20;;;;;;5015265;28;20029;-68
2022/07/02 08:24:46;;;;;;;2.92;0.40;;;23.50;65.30;;;;;;5012011;28;20033;-68
2022/07/02 08:27:12;;;;;;;1.52;0.28;;;23.60;65.40;;;;;;5016175;28;20109;-69
2022/07/02 08:29:37;;;;;;;2.45;0.28;;;23.50;65.10;;;;;;5014917;28;20050;-69
2022/07/02 08:32:04;;;;;;;1.55;0.32;;;23.50;65.30;;;;;;5014329;28;20026;-69
2022/07/02 08:34:31;;;;;;;2.85;0.40;;;23.60;65.00;;;;;;5015038;28;20018;-69
2022/07/02 08:36:57;;;;;;;1.27;0.45;;;23.60;65.00;;;;;;5013036;28;20022;-69
2022/07/02 08:39:22;;;;;;;8.30;0.45;;;23.60;65.10;;;;;;5014938;28;20037;-68
2022/07/02 08:41:49;;;;;;;5.20;0.40;;;23.60;65.00;;;;;;5014289;28;20427;-67
2022/07/02 08:44:16;;;;;;;1.85;0.25;;;23.70;65.00;;;;;;5014207;28;20037;-68
2022/07/02 08:46:45;;;;;;;3.58;0.40;;;23.70;65.00;;;;;;5010076;28;20072;-68
2022/07/02 08:49:11;;;;;;;2.63;0.40;;;23.70;65.20;;;;;;5015956;28;20080;-68
2022/07/02 08:51:36;;;;;;;3.97;0.60;;;23.70;65.20;;;;;;5010855;28;20029;-69
2022/07/02 08:54:02;;;;;;;5.25;0.40;;;23.80;65.10;;;;;;5016561;28;20384;-68
2022/07/02 08:56:31;;;;;;;5.35;0.75;;;23.80;65.20;;;;;;5012217;28;20099;-68
2022/07/02 08:58:58;;;;;;;1.70;0.30;;;23.80;64.90;;;;;;5014732;28;20076;-68
2022/07/02 09:01:24;;;;;;;5.85;0.60;;;23.90;64.90;;;;;;5013487;28;20033;-68
2022/07/02 09:03:52;;;;;;;3.17;0.60;;;23.90;64.70;;;;;;5011475;28;20030;-68
2022/07/02 09:06:19;;;;;;;2.20;0.35;;;23.90;64.50;;;;;;5010128;28;20026;-68
2022/07/02 09:08:45;;;;;;;3.13;0.40;;;24.00;64.30;;;;;;5010506;28;20034;-67
2022/07/02 09:11:11;;;;;;;2.35;0.32;;;24.00;64.20;;;;;;5005547;28;20018;-69
2022/07/02 09:13:39;;;;;;;2.97;0.80;;;24.00;64.40;;;;;;5013607;28;20034;-68
2022/07/02 09:16:07;;;;;;;2.95;0.65;;;24.00;64.40;;;;;;5007928;28;20026;-69
2022/07/02 09:18:34;;;;;;;4.57;0.40;;;23.90;64.50;;;;;;5009724;28;20026;-68
2022/07/02 09:20:59;;;;;;;2.53;0.32;;;24.00;64.20;;;;;;5011875;28;20068;-68
2022/07/02 09:23:25;;;;;;;4.97;0.57;;;23.90;64.40;;;;;;5010042;28;20064;-68
2022/07/02 09:25:51;;;;;;;6.35;0.75;;;23.90;64.40;;;;;;5009799;28;20028;-68
2022/07/02 09:28:18;;;;;;;5.28;0.50;;;23.90;64.70;;;;;;5008751;28;20042;-66
2022/07/02 09:30:44;;;;;;;7.50;0.57;;;24.00;65.20;;;;;;5007968;28;20088;-66
2022/07/02 09:33:35;;;;;;;8.73;0.90;;;23.90;64.40;;;;;;5008214;28;20435;-66
2022/07/02 09:36:11;;;;;;;6.43;0.68;;;24.00;64.10;;;;;;5008603;28;20032;-66
2022/07/02 09:38:48;;;;;;;2.78;0.55;;;23.90;64.10;;;;;;5005740;28;20464;-67
2022/07/02 09:41:18;;;;;;;5.55;0.75;;;23.90;64.20;;;;;;5006288;28;20049;-67
2022/07/02 09:43:45;;;;;;;2.60;0.50;;;23.90;63.90;;;;;;5006323;28;20037;-65
2022/07/02 09:46:18;;;;;;;3.72;0.40;;;24.00;63.20;;;;;;5007864;28;20408;-65
2022/07/02 09:48:46;;;;;;;2.83;0.60;;;24.00;63.40;;;;;;5008116;28;20046;-66
2022/07/02 09:51:12;;;;;;;4.45;0.65;;;23.90;63.40;;;;;;5007152;28;20037;-66
2022/07/02 09:53:52;;;;;;;6.68;0.70;;;23.90;63.10;;;;;;5009221;28;20026;-67
2022/07/02 09:56:24;;;;;;;3.35;0.52;;;24.00;63.20;;;;;;5010595;28;20034;-66
2022/07/02 09:58:50;;;;;;;4.13;0.55;;;24.00;63.30;;;;;;5003147;28;20113;-66
2022/07/02 10:01:20;;;;;;;6.18;0.77;;;24.00;62.60;;;;;;5013405;28;20076;-65
2022/07/02 10:03:53;;;;;;;1.42;0.30;;;23.90;62.70;;;;;;5013239;28;20034;-67
2022/07/02 10:06:19;;;;;;;2.53;0.40;;;24.00;62.50;;;;;;5012578;28;20030;-67
2022/07/02 10:08:45;;;;;;;4.43;0.60;;;23.90;62.50;;;;;;5008291;28;20066;-67
2022/07/02 10:11:13;;;;;;;6.88;0.40;;;23.80;62.70;;;;;;5013794;28;20101;-66
2022/07/02 10:13:40;;;;;;;3.03;0.52;;;23.90;62.80;;;;;;5014943;28;20038;-66
2022/07/02 10:16:13;;;;;;;2.83;0.50;;;23.80;62.80;;;;;;5013494;28;20030;-67
2022/07/02 10:18:41;;;;;;;2.40;0.50;;;23.80;62.80;;;;;;5011894;28;20033;-68
2022/07/02 10:21:07;;;;;;;4.60;0.52;;;23.80;62.80;;;;;;5010059;28;20444;-67
2022/07/02 10:23:35;;;;;;;3.08;0.30;;;23.90;62.80;;;;;;5006952;28;20096;-67
2022/07/02 10:26:00;;;;;;;3.28;0.50;;;23.80;63.00;;;;;;5008634;28;20034;-68
2022/07/02 10:28:26;;;;;;;3.08;0.77;;;23.80;62.90;;;;;;5004216;28;20046;-68
2022/07/02 10:30:54;;;;;;;4.22;0.50;;;23.80;62.80;;;;;;5014245;28;20018;-68
2022/07/02 10:33:35;;;;;;;3.50;0.45;;;23.80;62.80;;;;;;5011476;28;20068;-67
2022/07/02 10:36:02;;;;;;;1.47;0.30;;;23.70;62.70;;;;;;5006301;28;20022;-66
2022/07/02 10:38:29;;;;;;;7.68;0.50;;;23.80;63.30;;;;;;5006936;28;20276;-68
2022/07/02 10:40:55;;;;;;;2.63;0.63;;;23.80;63.40;;;;;;5011637;28;20018;-67
2022/07/02 10:43:22;;;;;;;6.97;0.95;;;23.90;62.40;;;;;;5008316;28;20052;-67
2022/07/02 10:45:48;;;;;;;3.88;0.73;;;23.90;62.50;;;;;;5006387;28;20022;-66
2022/07/02 10:48:14;;;;;;;3.30;0.75;;;23.90;62.80;;;;;;5016976;28;20034;-66
2022/07/02 10:50:43;;;;;;;2.97;1.27;;;23.90;63.00;;;;;;4991488;28;20028;-67
2022/07/02 10:53:22;;;;;;;4.63;1.42;;;23.90;63.90;;;;;;4991006;28;20400;-66
2022/07/02 10:55:51;;;;;;;5.53;1.38;;;23.90;64.50;;;;;;5010889;28;20032;-66
2022/07/02 10:58:21;;;;;;;3.08;1.48;;;23.90;65.20;;;;;;5005803;28;20120;-66
2022/07/02 11:00:48;;;;;;;3.17;1.38;;;24.00;65.20;;;;;;5008839;28;20022;-67
2022/07/02 11:03:15;;;;;;;3.42;1.30;;;23.90;65.20;;;;;;5008445;28;20072;-67
2022/07/02 11:05:59;;;;;;;4.28;1.40;;;24.00;65.60;;;;;;5004663;28;20034;-67
2022/07/02 11:09:05;;;;;;;3.78;1.30;;;24.00;66.20;;;;;;5005475;28;20514;-68
2022/07/02 11:11:36;;;;;;;5.57;1.10;;;24.00;67.80;;;;;;5007629;28;20022;-67
2022/07/02 11:14:06;;;;;;;5.30;1.35;;;24.10;69.10;;;;;;5007726;28;20048;-68
2022/07/02 11:16:37;;;;;;;5.20;1.55;;;24.10;69.90;;;;;;5006400;28;20135;-68
2022/07/02 11:19:10;;;;;;;3.88;1.55;;;24.10;70.40;;;;;;5007220;28;20529;-68
2022/07/02 11:21:39;;;;;;;5.43;1.67;;;24.10;71.70;;;;;;5008129;28;20020;-68
2022/07/02 11:24:06;;;;;;;6.43;1.60;;;24.10;71.30;;;;;;5011181;28;20049;-68
2022/07/02 11:26:31;;;;;;;3.20;1.25;;;24.00;71.30;;;;;;5011052;28;20025;-67
2022/07/02 11:29:03;;;;;;;2.13;1.08;;;24.00;70.50;;;;;;5008275;28;20042;-68
2022/07/02 11:31:28;;;;;;;6.20;0.90;;;24.10;65.80;;;;;;5009755;28;20491;-68
2022/07/02 11:33:56;;;;;;;2.15;0.82;;;24.10;64.50;;;;;;5013149;28;20053;-68
2022/07/02 11:36:23;;;;;;;7.38;0.70;;;24.10;63.50;;;;;;5014366;28;20022;-68
2022/07/02 11:38:50;;;;;;;1.40;0.35;;;24.10;63.00;;;;;;5014197;28;20446;-68
2022/07/02 11:41:24;;;;;;;4.80;0.50;;;24.20;62.10;;;;;;5008326;28;20229;-68
2022/07/02 11:43:55;;;;;;;4.43;0.60;;;24.10;61.70;;;;;;5008618;28;20510;-67
2022/07/02 11:46:29;;;;;;;1.83;0.30;;;24.10;60.90;;;;;;5008069;28;20471;-67
2022/07/02 11:48:56;;;;;;;2.28;0.30;;;24.20;60.90;;;;;;5008127;28;20491;-67
2022/07/02 11:51:22;;;;;;;0.93;0.30;;;24.20;61.10;;;;;;4996078;28;20026;-67
2022/07/02 11:53:59;;;;;;;5.07;0.47;;;24.10;61.00;;;;;;5004288;28;20060;-68
2022/07/02 11:56:26;;;;;;;2.17;0.40;;;24.10;61.10;;;;;;5004873;28;20030;-68
2022/07/02 11:58:52;;;;;;;2.70;0.32;;;24.10;61.10;;;;;;5004862;28;20500;-68
2022/07/02 12:01:22;;;;;;;1.85;0.40;;;24.20;61.00;;;;;;5008421;28;20036;-67
2022/07/02 12:03:49;;;;;;;1.05;0.30;;;24.20;61.00;;;;;;5007267;28;20025;-66
2022/07/02 12:06:15;;;;;;;2.25;0.50;;;24.30;60.80;;;;;;5004089;28;20125;-67
2022/07/02 12:08:42;;;;;;;3.90;0.40;;;24.20;61.10;;;;;;5005511;28;20034;-67
2022/07/02 12:11:16;;;;;;;1.48;0.32;;;24.20;61.30;;;;;;5010127;28;20022;-66
2022/07/02 12:13:43;;;;;;;1.88;0.35;;;24.30;61.30;;;;;;5007879;28;20156;-66
2022/07/02 12:16:17;;;;;;;1.60;0.40;;;24.30;61.40;;;;;;5006357;28;20030;-67
2022/07/02 12:18:42;;;;;;;1.83;0.45;;;24.30;61.40;;;;;;5007521;28;20030;-67
2022/07/02 12:21:16;;;;;;;0.82;0.38;;;24.30;61.30;;;;;;5005713;28;20022;-68
2022/07/02 12:23:47;;;;;;;5.25;0.50;;;24.40;61.60;;;;;;5008610;28;20032;-66
2022/07/02 12:26:25;;;;;;;1.60;0.30;;;24.40;61.50;;;;;;5009082;28;20026;-65
2022/07/02 12:31:52;;;;;;;2.40;0.30;;;24.40;61.80;;;;;;5004116;28;20121;-65
2022/07/02 12:34:20;;;;;;;2.83;0.40;;;24.40;61.80;;;;;;5008982;28;20049;-65
2022/07/02 12:36:47;;;;;;;3.75;0.40;;;24.40;62.00;;;;;;5009543;28;20026;-66
2022/07/02 12:39:13;;;;;;;2.38;0.70;;;24.40;62.10;;;;;;5010669;28;20116;-65
2022/07/02 12:41:38;;;;;;;1.83;0.30;;;24.40;62.10;;;;;;5007366;28;20108;-65
2022/07/02 12:44:04;;;;;;;1.92;0.35;;;24.50;62.20;;;;;;5007961;28;20449;-66
2022/07/02 12:46:30;;;;;;;2.55;0.40;;;24.60;62.10;;;;;;5007112;28;20046;-64
2022/07/02 12:48:55;;;;;;;1.42;0.20;;;24.60;61.90;;;;;;5006736;28;20099;-65
2022/07/02 12:51:22;;;;;;;1.90;0.28;;;24.60;62.10;;;;;;5008919;28;20084;-65
2022/07/02 12:53:57;;;;;;;1.90;0.30;;;24.60;62.20;;;;;;5007977;28;20029;-64
2022/07/02 12:56:23;;;;;;;2.60;0.55;;;24.60;62.30;;;;;;4990365;28;20493;-65